Eco Friend — 5BKS4 — position and weather

sailwx.info

Track history (hours):
 
Tides and Currents Weather Stations Pressure Air Temp Water Temp Dewpoint Dewpoint Depression Visibility Wind Speed Wind Dir Waves Ship Positions

Eco Friend

Last reported at 2017-Nov-14 01:16 UTC. Time now 2017-Nov-21 13:59 UTC.
Position N 36°09' W 005°22'.

Length 66 m; draft 4 m.

Type: Ship. MMSI: 212119000.

Date/timePositionNaut miles runAvg speedWind from/ knotsBaromVisibWave heightAir tempDewpointWater temp
2017-Nov-14 01:16N 36°09' W 005°22'0 1.0
2017-Nov-14 00:59N 36°09' W 005°22'1 2.8
2017-Nov-14 00:30N 36°07' W 005°22'0 0.0
2017-Nov-14 00:00N 36°07' W 005°22'0 0.0
2017-Nov-13 23:30N 36°07' W 005°22'0 0.0
2017-Nov-13 23:00N 36°07' W 005°22'3 0.2
2017-Nov-13 01:55N 36°07' W 005°18'0 0.0
2017-Nov-13 01:08N 36°07' W 005°18'0 0.1
2017-Nov-13 00:55N 36°07' W 005°18'0 0.0
2017-Nov-13 00:28N 36°07' W 005°18'0 0.0
2017-Nov-12 23:59N 36°07' W 005°18'0 0.0
2017-Nov-12 23:30N 36°07' W 005°18'0 0.0
2017-Nov-12 23:00N 36°07' W 005°18'0 0.0
2017-Nov-12 22:14N 36°07' W 005°18'0 0.0
2017-Nov-12 22:00N 36°07' W 005°18'0 0.0
2017-Nov-12 21:30N 36°07' W 005°18'0 0.0
2017-Nov-12 21:01N 36°07' W 005°18'0 0.0
2017-Nov-12 20:30N 36°07' W 005°18'0 0.0
2017-Nov-12 20:01N 36°07' W 005°18'0 0.0
2017-Nov-12 19:31N 36°07' W 005°18'0 0.0
2017-Nov-12 19:00N 36°07' W 005°18'0 0.1
2017-Nov-12 16:53N 36°07' W 005°18'0 0.0
2017-Nov-12 16:31N 36°07' W 005°18'0 0.0
2017-Nov-12 16:00N 36°07' W 005°18'0 0.0
2017-Nov-12 15:31N 36°07' W 005°18'0 0.0
2017-Nov-12 15:00N 36°07' W 005°18'0 0.0
2017-Nov-12 14:30N 36°07' W 005°18'0 0.0
2017-Nov-12 14:00N 36°07' W 005°18'0 0.0
2017-Nov-12 13:31N 36°07' W 005°18'0 0.0
2017-Nov-12 13:00N 36°07' W 005°18'0 0.0
2017-Nov-12 12:30N 36°07' W 005°18'0 0.0
2017-Nov-12 12:01N 36°07' W 005°18'0 0.0
2017-Nov-12 07:10N 36°07' W 005°18'0 0.2
2017-Nov-12 06:51N 36°07' W 005°18'0 0.1
2017-Nov-12 06:18N 36°07' W 005°18'0 0.1
2017-Nov-12 06:00N 36°07' W 005°18'0 0.0
2017-Nov-12 05:30N 36°07' W 005°18'0 0.0
2017-Nov-12 05:01N 36°07' W 005°18'0 0.0
2017-Nov-12 04:31N 36°07' W 005°18'0 0.0
2017-Nov-12 04:00N 36°07' W 005°18'0 0.0
2017-Nov-12 03:31N 36°07' W 005°18'0 0.0
2017-Nov-12 03:00N 36°07' W 005°18'0 0.0
2017-Nov-12 02:31N 36°07' W 005°18'0 0.0
2017-Nov-12 01:58N 36°07' W 005°18'3 0.1
2017-Nov-10 23:45N 36°08' W 005°22'0 0.0
2017-Nov-10 23:19N 36°08' W 005°22'0 0.0
2017-Nov-10 22:58N 36°08' W 005°22'0 0.0
2017-Nov-10 22:29N 36°08' W 005°22'0 0.0
2017-Nov-10 21:49N 36°08' W 005°22'  
2017-Nov-07 15:57N 36°08' W 005°22'0 0.0
2017-Nov-07 14:48N 36°08' W 005°22'0 0.0
2017-Nov-07 14:30N 36°08' W 005°22'0 0.0
2017-Nov-07 14:00N 36°08' W 005°22'0 0.0
2017-Nov-07 13:30N 36°08' W 005°22'0 0.0
2017-Nov-07 13:00N 36°08' W 005°22'0 0.0
2017-Nov-07 12:24N 36°08' W 005°22'0 0.0
2017-Nov-07 12:01N 36°08' W 005°22'0 0.0
2017-Nov-07 11:30N 36°08' W 005°22'1 2.0
2017-Nov-07 11:00N 36°07' W 005°22'0 0.2
2017-Nov-07 10:30N 36°07' W 005°22'0 0.2
2017-Nov-07 10:00N 36°07' W 005°22'2 0.9
2017-Nov-07 07:41N 36°05' W 005°20'  
Track history (hours):
 
Tides and Currents Weather Stations Pressure Air Temp Water Temp Dewpoint Dewpoint Depression Visibility Wind Speed Wind Dir Waves Ship Positions

Eco Friend

Last reported at 2017-Nov-14 01:16 UTC. Time now 2017-Nov-21 13:59 UTC.
Position N 36°09' W 005°22'.

Length 66 m; draft 4 m.

Type: Ship. MMSI: 212119000.

Date/timePositionNaut miles runAvg speedWind from/ knotsBaromVisibWave heightAir tempDewpointWater temp
2017-Nov-14 01:16N 36°09' W 005°22'0 1.0
2017-Nov-14 00:59N 36°09' W 005°22'1 2.8
2017-Nov-14 00:30N 36°07' W 005°22'0 0.0
2017-Nov-14 00:00N 36°07' W 005°22'0 0.0
2017-Nov-13 23:30N 36°07' W 005°22'0 0.0
2017-Nov-13 23:00N 36°07' W 005°22'3 0.2
2017-Nov-13 01:55N 36°07' W 005°18'0 0.0
2017-Nov-13 01:08N 36°07' W 005°18'0 0.1
2017-Nov-13 00:55N 36°07' W 005°18'0 0.0
2017-Nov-13 00:28N 36°07' W 005°18'0 0.0
2017-Nov-12 23:59N 36°07' W 005°18'0 0.0
2017-Nov-12 23:30N 36°07' W 005°18'0 0.0
2017-Nov-12 23:00N 36°07' W 005°18'0 0.0
2017-Nov-12 22:14N 36°07' W 005°18'0 0.0
2017-Nov-12 22:00N 36°07' W 005°18'0 0.0
2017-Nov-12 21:30N 36°07' W 005°18'0 0.0
2017-Nov-12 21:01N 36°07' W 005°18'0 0.0
2017-Nov-12 20:30N 36°07' W 005°18'0 0.0
2017-Nov-12 20:01N 36°07' W 005°18'0 0.0
2017-Nov-12 19:31N 36°07' W 005°18'0 0.0
2017-Nov-12 19:00N 36°07' W 005°18'0 0.1
2017-Nov-12 16:53N 36°07' W 005°18'0 0.0
2017-Nov-12 16:31N 36°07' W 005°18'0 0.0
2017-Nov-12 16:00N 36°07' W 005°18'0 0.0
2017-Nov-12 15:31N 36°07' W 005°18'0 0.0
2017-Nov-12 15:00N 36°07' W 005°18'0 0.0
2017-Nov-12 14:30N 36°07' W 005°18'0 0.0
2017-Nov-12 14:00N 36°07' W 005°18'0 0.0
2017-Nov-12 13:31N 36°07' W 005°18'0 0.0
2017-Nov-12 13:00N 36°07' W 005°18'0 0.0
2017-Nov-12 12:30N 36°07' W 005°18'0 0.0
2017-Nov-12 12:01N 36°07' W 005°18'0 0.0
2017-Nov-12 07:10N 36°07' W 005°18'0 0.2
2017-Nov-12 06:51N 36°07' W 005°18'0 0.1
2017-Nov-12 06:18N 36°07' W 005°18'0 0.1
2017-Nov-12 06:00N 36°07' W 005°18'0 0.0
2017-Nov-12 05:30N 36°07' W 005°18'0 0.0
2017-Nov-12 05:01N 36°07' W 005°18'0 0.0
2017-Nov-12 04:31N 36°07' W 005°18'0 0.0
2017-Nov-12 04:00N 36°07' W 005°18'0 0.0
2017-Nov-12 03:31N 36°07' W 005°18'0 0.0
2017-Nov-12 03:00N 36°07' W 005°18'0 0.0
2017-Nov-12 02:31N 36°07' W 005°18'0 0.0
2017-Nov-12 01:58N 36°07' W 005°18'3 0.1
2017-Nov-10 23:45N 36°08' W 005°22'0 0.0
2017-Nov-10 23:19N 36°08' W 005°22'0 0.0
2017-Nov-10 22:58N 36°08' W 005°22'0 0.0
2017-Nov-10 22:29N 36°08' W 005°22'0 0.0
2017-Nov-10 21:49N 36°08' W 005°22'  
2017-Nov-07 15:57N 36°08' W 005°22'0 0.0
2017-Nov-07 14:48N 36°08' W 005°22'0 0.0
2017-Nov-07 14:30N 36°08' W 005°22'0 0.0
2017-Nov-07 14:00N 36°08' W 005°22'0 0.0
2017-Nov-07 13:30N 36°08' W 005°22'0 0.0
2017-Nov-07 13:00N 36°08' W 005°22'0 0.0
2017-Nov-07 12:24N 36°08' W 005°22'0 0.0
2017-Nov-07 12:01N 36°08' W 005°22'0 0.0
2017-Nov-07 11:30N 36°08' W 005°22'1 2.0
2017-Nov-07 11:00N 36°07' W 005°22'0 0.2
2017-Nov-07 10:30N 36°07' W 005°22'0 0.2
2017-Nov-07 10:00N 36°07' W 005°22'2 0.9
2017-Nov-07 07:41N 36°05' W 005°20'  

Dump ship's entire track history